グアダラハラ の空港の天気 - METARとTAF

ドン・ミゲル・イダルゴ・イ・コスティージャ国際空港 ( MMGL / GDL ) - メキシコ ハリスコ州グアダラハラ
飛行場実況気象(Metar)
観測時間04/26 22:45 CDT (04/27 03:45 UTC)
風向・風速西 6m/s
視程10km以上
天気現象
なし
気温24℃
湿度19%
気圧1020hPa
METARMMGL 270345Z 27011KT 10SM SKC 24/M01 A3011
過去の天気等 Google飛行場航空写真 Wunderground天気予報

過去48時間のMETAR

飛行場予報(TAF)
発表時間: 4/26 18:18 CDT (4/26 23:18 UTC)
予報対象時間: 26日19時 CDT ~ 28日1時 CDT
風向・風速西北西 8m/s
視程10km以上
なし
27日1時 CDT から
風向・風速北北西 4m/s
視程10km以上
なし
27日7時 CDT から
風向・風速北西 5m/s
視程10km以上
なし
27日13時 CDT から
風向・風速西南西 8m/s
視程10km以上
なし
27日22時 CDT から
風向・風速北西 5m/s
視程10km以上
なし
TAF MMGL 262318Z 2700/2806 29015KT P6SM SKC TX33/2722Z TN14/2713Z
FM270600 34008KT P6SM SKC
FM271200 32010KT P6SM SKC
FM271800 24015KT P6SM SKC
FM280300 32010KT P6SM SKC